Time;durP1;ratioP1;P1;durP2;ratioP2;P2;SDS_P1;SDS_P2;PMS_P1;PMS_P2;Temp;Humidity;BMP_temperature;BMP_pressure;BME280_temperature;BME280_humidity;BME280_pressure;Samples;Min_cycle;Max_cycle;Signal;HPM_P1;HPM_P2
2023/04/20 00:00:10;;;;;;;5.85;2.85;;;;;;;6.68;45.73;102184.44;4875940;29;20068;-74
2023/04/20 00:02:37;;;;;;;12.15;3.90;;;;;;;6.64;46.82;102171.59;4891773;29;20504;-75
2023/04/20 00:05:04;;;;;;;6.20;2.78;;;;;;;6.64;46.38;102179.56;4861733;29;20080;-74
2023/04/20 00:07:30;;;;;;;4.68;3.05;;;;;;;6.66;45.32;102174.97;4893841;29;20108;-74
2023/04/20 00:09:56;;;;;;;6.65;3.67;;;;;;;6.64;45.40;102174.25;4875793;29;20129;-74
2023/04/20 00:12:21;;;;;;;7.75;3.15;;;;;;;6.58;45.92;102171.19;4876061;29;20123;-74
2023/04/20 00:14:46;;;;;;;5.00;2.92;;;;;;;6.59;45.14;102164.88;4870782;29;20129;-74
2023/04/20 00:17:13;;;;;;;5.57;2.70;;;;;;;6.55;46.03;102167.97;4862527;29;20493;-75
2023/04/20 00:19:38;;;;;;;6.00;2.53;;;;;;;6.49;45.73;102153.44;4862398;29;20092;-74
2023/04/20 00:22:03;;;;;;;4.32;3.00;;;;;;;6.48;45.90;102154.41;4879205;29;20397;-75
2023/04/20 00:24:29;;;;;;;5.75;2.63;;;;;;;6.47;46.39;102151.91;4879015;29;20033;-74
2023/04/20 00:26:55;;;;;;;6.25;2.75;;;;;;;6.39;46.36;102149.09;4879058;29;20477;-74
2023/04/20 00:29:20;;;;;;;5.38;2.88;;;;;;;6.36;46.95;102140.44;4862567;29;20084;-74
2023/04/20 00:31:46;;;;;;;4.45;2.58;;;;;;;6.34;46.19;102142.41;4896843;29;20028;-74
2023/04/20 00:34:11;;;;;;;6.22;2.25;;;;;;;6.31;46.73;102136.53;4896910;29;20500;-74
2023/04/20 00:36:36;;;;;;;4.70;2.53;;;;;;;6.23;46.45;102131.91;4896809;29;20051;-74
2023/04/20 00:39:03;;;;;;;11.43;3.28;;;;;;;6.24;47.04;102124.81;4879978;29;20037;-75
2023/04/20 00:41:29;;;;;;;4.90;2.60;;;;;;;6.26;46.68;102129.00;4877564;29;20041;-74
2023/04/20 00:43:54;;;;;;;4.38;2.30;;;;;;;6.24;46.87;102122.19;4878792;29;20036;-74
2023/04/20 00:46:20;;;;;;;5.90;2.50;;;;;;;6.23;47.14;102115.19;4896371;29;20484;-74
2023/04/20 00:48:46;;;;;;;6.53;2.78;;;;;;;6.23;47.14;102113.38;4896616;29;20043;-74
2023/04/20 00:51:12;;;;;;;4.88;2.55;;;;;;;6.23;47.33;102115.19;4868131;29;20032;-74
2023/04/20 00:53:38;;;;;;;6.82;2.88;;;;;;;6.21;48.19;102110.03;4881452;29;20040;-74
2023/04/20 00:56:04;;;;;;;5.68;2.42;;;;;;;6.08;48.58;102091.75;4893972;29;20033;-74
2023/04/20 00:58:30;;;;;;;4.03;2.97;;;;;;;6.15;47.95;102100.81;4896470;29;20043;-75
2023/04/20 01:00:55;;;;;;;5.97;2.60;;;;;;;6.13;48.79;102094.84;4896268;29;20032;-74
2023/04/20 01:03:21;;;;;;;7.53;4.30;;;;;;;6.08;48.43;102082.97;4896352;29;20096;-74
2023/04/20 01:05:47;;;;;;;7.03;3.22;;;;;;;6.09;48.89;102082.00;4885172;29;20036;-74
2023/04/20 01:08:12;;;;;;;5.78;2.92;;;;;;;6.07;48.90;102070.69;4888826;29;20059;-74
2023/04/20 01:10:37;;;;;;;7.88;2.78;;;;;;;6.06;48.86;102064.56;4894198;29;20036;-74
2023/04/20 01:13:03;;;;;;;5.10;2.55;;;;;;;6.06;49.11;102063.72;4878229;29;20093;-74
2023/04/20 01:15:28;;;;;;;4.07;2.33;;;;;;;5.95;50.46;102051.44;4877926;29;20043;-74
2023/04/20 01:17:53;;;;;;;6.60;2.20;;;;;;;5.96;49.84;102055.75;4895959;29;20040;-74
2023/04/20 01:20:19;;;;;;;6.28;3.17;;;;;;;5.91;51.50;102058.78;4878627;29;20096;-74
2023/04/20 01:22:49;;;;;;;6.80;3.38;;;;;;;5.77;51.60;102043.28;4880278;29;20519;-74
2023/04/20 01:25:16;;;;;;;5.03;2.45;;;;;;;5.70;51.78;102048.28;4877257;29;20060;-74
2023/04/20 01:27:42;;;;;;;5.55;3.03;;;;;;;5.66;52.56;102041.59;4892326;29;20115;-74
2023/04/20 01:30:08;;;;;;;6.13;3.65;;;;;;;5.64;51.80;102045.34;4895816;29;20115;-74
2023/04/20 01:32:34;;;;;;;4.13;2.72;;;;;;;5.61;51.81;102040.34;4888733;29;20077;-74
2023/04/20 01:35:00;;;;;;;5.53;2.83;;;;;;;5.55;53.63;102031.09;4879864;29;20037;-74
2023/04/20 01:37:25;;;;;;;4.63;2.70;;;;;;;5.54;53.05;102024.13;4879233;29;20442;-74
2023/04/20 01:39:51;;;;;;;5.60;2.92;;;;;;;5.47;53.47;102028.28;4878941;29;20032;-74
2023/04/20 01:42:16;;;;;;;8.00;2.53;;;;;;;5.44;53.13;102020.63;4890594;29;20056;-74
2023/04/20 01:44:42;;;;;;;4.45;2.40;;;;;;;5.48;53.42;102020.22;4877719;29;20041;-74
2023/04/20 01:47:07;;;;;;;5.47;2.22;;;;;;;5.46;53.53;102011.59;4877548;29;20029;-74
2023/04/20 01:49:32;;;;;;;5.85;3.10;;;;;;;5.43;52.62;102005.72;4885370;29;20044;-74
2023/04/20 01:51:58;;;;;;;10.43;3.00;;;;;;;5.43;53.52;102008.38;4873213;29;21028;-74
2023/04/20 01:54:23;;;;;;;7.03;2.38;;;;;;;5.37;54.13;101993.03;4895448;29;20412;-74
2023/04/20 01:56:48;;;;;;;7.30;2.35;;;;;;;5.37;53.70;101999.19;4878342;29;20032;-74
2023/04/20 01:59:14;;;;;;;5.38;2.38;;;;;;;5.34;53.67;101993.28;4895209;29;20119;-74
2023/04/20 02:01:39;;;;;;;6.90;2.17;;;;;;;5.35;53.82;101992.34;4895166;29;20064;-74
2023/04/20 02:04:05;;;;;;;6.00;2.35;;;;;;;5.32;54.61;101996.09;4895200;29;20024;-74
2023/04/20 02:06:31;;;;;;;4.20;2.20;;;;;;;5.30;54.53;101991.91;4895129;29;20020;-74
2023/04/20 02:08:57;;;;;;;4.93;2.50;;;;;;;5.17;54.68;101978.91;4895182;29;20059;-74
2023/04/20 02:11:22;;;;;;;5.85;2.35;;;;;;;5.18;54.47;101978.75;4894991;29;20477;-74
2023/04/20 02:13:48;;;;;;;3.83;2.55;;;;;;;5.20;55.45;101978.63;4878155;29;20048;-74
2023/04/20 02:16:13;;;;;;;5.72;2.70;;;;;;;5.20;56.06;101978.63;4895303;29;20051;-74
2023/04/20 02:18:38;;;;;;;5.28;2.40;;;;;;;5.17;56.26;101987.69;4895025;29;20480;-74
2023/04/20 02:21:04;;;;;;;5.03;2.65;;;;;;;5.12;56.63;101975.81;4895019;29;20037;-74
2023/04/20 02:23:30;;;;;;;3.60;2.25;;;;;;;5.16;56.34;102001.00;4877852;29;20037;-74
2023/04/20 02:25:55;;;;;;;8.23;3.55;;;;;;;5.14;56.67;101987.13;4894681;29;20064;-74
2023/04/20 02:28:21;;;;;;;6.75;2.83;;;;;;;5.14;56.75;101980.00;4883241;29;20033;-74
2023/04/20 02:30:46;;;;;;;4.45;2.95;;;;;;;5.13;57.43;101978.31;4892329;29;20159;-74
2023/04/20 02:33:11;;;;;;;6.30;3.08;;;;;;;5.11;57.46;101974.13;4894646;29;20036;-74
2023/04/20 02:35:37;;;;;;;3.63;2.22;;;;;;;5.08;57.58;101969.13;4894574;29;20063;-75
2023/04/20 02:38:03;;;;;;;4.82;2.58;;;;;;;5.00;58.57;101965.34;4894690;29;20036;-75
2023/04/20 02:40:28;;;;;;;6.97;2.53;;;;;;;4.97;58.98;101956.84;4894440;29;20043;-75
2023/04/20 02:42:53;;;;;;;6.35;2.65;;;;;;;4.99;59.44;101961.00;4894607;29;20032;-74
2023/04/20 02:45:19;;;;;;;5.93;2.90;;;;;;;4.98;60.54;101953.22;4876038;29;20037;-74
2023/04/20 02:47:45;;;;;;;3.50;2.58;;;;;;;4.99;60.93;101949.59;4894457;29;20477;-74
2023/04/20 02:50:11;;;;;;;4.22;2.88;;;;;;;4.95;60.92;101943.75;4894656;29;20193;-74
2023/04/20 02:52:36;;;;;;;7.85;2.67;;;;;;;5.02;62.26;101950.16;4862117;29;20169;-74
2023/04/20 02:55:02;;;;;;;3.92;2.45;;;;;;;5.05;62.01;101946.41;4877633;29;20044;-74
2023/04/20 02:57:27;;;;;;;5.70;2.67;;;;;;;5.01;62.77;101937.94;4894427;29;20510;-74
2023/04/20 02:59:52;;;;;;;5.00;3.05;;;;;;;5.06;62.21;101934.91;4894440;29;20084;-74
2023/04/20 03:02:18;;;;;;;4.10;2.67;;;;;;;5.07;62.35;101936.56;4876333;29;20088;-74
2023/04/20 03:04:43;;;;;;;6.07;2.78;;;;;;;5.07;62.78;101939.19;4876436;29;20096;-74
2023/04/20 03:07:09;;;;;;;7.88;3.05;;;;;;;5.03;63.81;101928.06;4876310;29;20113;-74
2023/04/20 03:09:37;;;;;;;4.80;3.00;;;;;;;5.08;63.92;101932.09;4876341;29;20071;-74
2023/04/20 03:12:04;;;;;;;4.82;2.85;;;;;;;5.08;63.94;101924.16;4876235;29;20500;-74
2023/04/20 03:14:29;;;;;;;4.20;2.58;;;;;;;5.11;64.97;101924.75;4876196;29;20039;-74
2023/04/20 03:16:55;;;;;;;6.20;2.63;;;;;;;5.14;65.22;101918.38;4876241;29;20033;-74
2023/04/20 03:19:21;;;;;;;5.35;2.42;;;;;;;5.23;65.29;101930.75;4876312;29;20029;-74
2023/04/20 03:21:46;;;;;;;4.63;2.45;;;;;;;5.29;65.42;101922.28;4876335;29;20512;-74
2023/04/20 03:24:11;;;;;;;6.70;3.47;;;;;;;5.26;64.67;101914.63;4876114;29;20120;-74
2023/04/20 03:26:37;;;;;;;7.63;2.90;;;;;;;5.36;65.73;101919.94;4876040;29;20088;-74
2023/04/20 03:29:02;;;;;;;9.52;4.90;;;;;;;5.41;66.83;101920.38;4859529;29;20049;-74
2023/04/20 03:31:27;;;;;;;7.22;3.08;;;;;;;5.43;66.72;101911.31;4893810;29;20044;-74
2023/04/20 03:33:53;;;;;;;6.93;3.40;;;;;;;5.50;65.14;101911.59;4877108;29;20039;-74
2023/04/20 03:36:18;;;;;;;8.48;3.83;;;;;;;5.54;65.67;101897.13;4893841;29;20462;-74
2023/04/20 03:38:44;;;;;;;7.50;3.72;;;;;;;5.63;65.53;101906.03;4893905;29;20079;-74
2023/04/20 03:41:09;;;;;;;7.85;3.40;;;;;;;5.63;65.99;101888.38;4893972;29;20033;-74
2023/04/20 03:43:34;;;;;;;5.70;3.70;;;;;;;5.70;65.84;101900.06;4893817;29;20032;-74
2023/04/20 03:46:00;;;;;;;7.22;3.38;;;;;;;5.77;66.10;101899.53;4877054;29;20040;-74
2023/04/20 03:48:25;;;;;;;7.00;3.40;;;;;;;5.83;66.97;101894.50;4895579;29;20048;-74
2023/04/20 03:50:50;;;;;;;5.68;3.22;;;;;;;5.88;65.84;101888.78;4897717;29;20176;-74
2023/04/20 03:53:16;;;;;;;5.00;3.38;;;;;;;5.92;65.26;101896.31;4897789;29;20036;-74
2023/04/20 03:55:41;;;;;;;8.52;3.38;;;;;;;5.97;66.27;101895.06;4896312;29;20037;-74
2023/04/20 03:58:07;;;;;;;7.85;3.17;;;;;;;6.00;66.39;101900.09;4879685;29;20418;-74
2023/04/20 04:00:33;;;;;;;7.57;2.90;;;;;;;6.05;66.70;101889.91;4897198;29;20057;-74
2023/04/20 04:02:58;;;;;;;8.95;3.97;;;;;;;6.10;66.98;101883.22;4897332;29;20036;-74
2023/04/20 04:05:24;;;;;;;7.40;3.33;;;;;;;6.17;67.33;101887.94;4897363;29;20137;-74
2023/04/20 04:07:50;;;;;;;5.32;3.28;;;;;;;6.15;67.60;101878.31;4897346;29;20115;-74
2023/04/20 04:10:17;;;;;;;5.88;3.28;;;;;;;6.40;67.48;101883.16;4880543;29;20116;-75
2023/04/20 04:12:43;;;;;;;8.73;4.00;;;;;;;6.48;68.27;101881.44;4897326;29;20056;-74
2023/04/20 04:15:09;;;;;;;6.53;3.33;;;;;;;6.56;69.02;101886.03;4897074;29;20025;-74
2023/04/20 04:17:35;;;;;;;7.35;3.95;;;;;;;6.62;68.36;101882.78;4897180;29;20032;-74
2023/04/20 04:20:00;;;;;;;7.10;3.65;;;;;;;6.69;68.56;101872.47;4897179;29;20036;-74
2023/04/20 04:22:25;;;;;;;7.20;3.80;;;;;;;6.73;68.04;101857.91;4896988;29;20124;-75
2023/04/20 04:24:53;;;;;;;6.47;3.80;;;;;;;6.75;67.99;101855.97;4897105;29;20084;-75
2023/04/20 04:27:19;;;;;;;5.75;3.63;;;;;;;6.78;68.28;101860.97;4897111;29;20049;-74
2023/04/20 04:29:45;;;;;;;10.05;4.68;;;;;;;6.67;68.31;101832.00;4896969;29;20032;-74
2023/04/20 04:32:11;;;;;;;8.02;4.05;;;;;;;6.78;68.03;101845.06;4896816;29;20700;-74
2023/04/20 04:34:37;;;;;;;8.05;3.72;;;;;;;6.80;68.13;101851.06;4880238;29;20904;-74
2023/04/20 04:37:02;;;;;;;9.70;3.95;;;;;;;6.79;68.03;101833.50;4896696;29;20437;-75
2023/04/20 04:39:29;;;;;;;6.57;4.13;;;;;;;6.83;68.54;101841.97;4879907;29;20133;-74
2023/04/20 04:41:54;;;;;;;6.55;3.50;;;;;;;6.82;68.59;101851.75;4896724;29;20044;-75
2023/04/20 04:44:20;;;;;;;3.85;2.90;;;;;;;6.78;68.93;101840.56;4879746;29;20043;-75
2023/04/20 04:46:46;;;;;;;7.13;3.55;;;;;;;6.79;68.94;101841.44;4896580;29;20033;-75
2023/04/20 04:49:12;;;;;;;8.10;4.07;;;;;;;6.85;68.50;101840.00;4896486;29;20048;-75
2023/04/20 04:51:37;;;;;;;6.60;3.22;;;;;;;6.85;68.24;101845.31;4884037;29;20040;-75
2023/04/20 04:54:03;;;;;;;9.73;3.83;;;;;;;6.86;68.38;101831.06;4880491;29;20081;-75
2023/04/20 04:56:28;;;;;;;8.00;3.80;;;;;;;6.82;69.16;101827.88;4880729;29;20056;-75
2023/04/20 04:58:53;;;;;;;6.82;3.72;;;;;;;6.81;68.76;101839.44;4880982;29;20037;-74
2023/04/20 05:01:19;;;;;;;9.55;3.65;;;;;;;6.85;68.17;101851.44;4863158;29;20100;-75
2023/04/20 05:03:45;;;;;;;6.43;3.53;;;;;;;6.83;69.27;101836.66;4886942;29;20032;-77
2023/04/20 05:06:10;;;;;;;12.15;4.88;;;;;;;6.79;69.63;101841.44;4883768;29;20033;-76
2023/04/20 05:08:36;;;;;;;5.38;3.17;;;;;;;6.74;69.97;101835.75;4883959;29;20033;-77
2023/04/20 05:11:01;;;;;;;7.55;3.35;;;;;;;6.78;69.30;101818.53;4871554;29;20033;-85
2023/04/20 05:13:27;;;;;;;11.88;4.75;;;;;;;6.77;70.15;101825.66;4880903;29;20033;-74
2023/04/20 05:15:52;;;;;;;7.38;3.60;;;;;;;6.87;69.10;101838.88;4880676;29;20041;-72
2023/04/20 05:18:17;;;;;;;8.60;4.32;;;;;;;6.85;69.60;101830.22;4880978;29;20084;-73
2023/04/20 05:20:43;;;;;;;7.10;3.58;;;;;;;6.83;70.03;101834.84;4880854;29;20393;-73
2023/04/20 05:23:08;;;;;;;11.07;4.20;;;;;;;6.87;70.21;101830.94;4864895;29;20037;-74
2023/04/20 05:25:34;;;;;;;8.18;3.85;;;;;;;6.82;70.33;101825.22;4880965;29;20044;-75
2023/04/20 05:27:59;;;;;;;8.10;3.67;;;;;;;6.85;70.33;101826.75;4879625;29;20136;-72
2023/04/20 05:30:25;;;;;;;9.73;4.65;;;;;;;6.87;70.58;101830.94;4883051;29;20031;-73
2023/04/20 05:32:50;;;;;;;4.97;4.05;;;;;;;6.87;70.65;101827.44;4881074;29;20088;-72
2023/04/20 05:35:15;;;;;;;5.80;3.22;;;;;;;6.91;70.34;101829.63;4870588;29;20131;-73
2023/04/20 05:37:41;;;;;;;10.18;3.92;;;;;;;6.89;70.60;101825.47;4885790;29;20131;-79
2023/04/20 05:40:08;;;;;;;7.43;3.10;;;;;;;6.90;70.72;101821.84;4880055;29;20389;-75
2023/04/20 05:42:33;;;;;;;8.23;3.58;;;;;;;6.89;70.88;101815.72;4878960;29;20040;-75
2023/04/20 05:44:58;;;;;;;8.85;4.20;;;;;;;6.91;71.68;101821.69;4880087;29;20028;-75
2023/04/20 05:47:24;;;;;;;8.88;4.25;;;;;;;7.00;71.23;101819.97;4856395;29;20045;-75
2023/04/20 05:49:50;;;;;;;8.65;3.97;;;;;;;7.07;70.66;101818.38;4879779;29;20045;-75
2023/04/20 05:52:15;;;;;;;11.98;3.95;;;;;;;7.18;70.68;101822.66;4879692;29;20028;-75
2023/04/20 05:54:41;;;;;;;10.68;4.22;;;;;;;7.16;71.28;101819.31;4880403;29;20028;-75
2023/04/20 05:57:06;;;;;;;7.97;4.68;;;;;;;7.22;71.71;101806.25;4879460;29;20043;-74
2023/04/20 05:59:31;;;;;;;10.38;3.60;;;;;;;7.29;71.31;101813.63;4880199;29;20033;-74
2023/04/20 06:01:57;;;;;;;8.57;4.18;;;;;;;7.29;71.54;101806.50;4881127;29;20024;-74
2023/04/20 06:04:22;;;;;;;13.05;3.92;;;;;;;7.28;71.91;101788.88;4880929;29;20029;-76
2023/04/20 06:06:47;;;;;;;8.18;3.88;;;;;;;7.42;71.42;101809.59;4880212;29;20104;-75
2023/04/20 06:09:13;;;;;;;7.35;4.07;;;;;;;7.35;72.92;101805.06;4880610;29;20025;-74
2023/04/20 06:11:38;;;;;;;10.57;4.78;;;;;;;7.45;72.23;101813.78;4862575;29;20032;-75
2023/04/20 06:14:04;;;;;;;9.25;4.25;;;;;;;7.45;72.53;101809.28;4880063;29;20473;-75
2023/04/20 06:16:29;;;;;;;12.93;3.75;;;;;;;7.45;71.76;101825.22;4879146;29;20033;-74
2023/04/20 06:18:55;;;;;;;8.50;3.92;;;;;;;7.40;72.20;101814.22;4862643;29;20041;-77
2023/04/20 06:21:20;;;;;;;9.73;3.92;;;;;;;7.43;72.21;101810.44;4880490;29;20116;-74
2023/04/20 06:23:45;;;;;;;11.88;3.80;;;;;;;7.36;73.53;101815.53;4883671;29;20056;-74
2023/04/20 06:26:11;;;;;;;9.82;4.70;;;;;;;7.42;72.74;101825.53;4862625;29;20084;-74
2023/04/20 06:28:36;;;;;;;11.65;4.22;;;;;;;7.47;72.20;101828.56;4880111;29;20097;-75
2023/04/20 06:31:03;;;;;;;7.45;3.75;;;;;;;7.47;71.73;101803.84;4879612;29;20028;-76
2023/04/20 06:33:29;;;;;;;12.48;4.38;;;;;;;7.50;71.24;101803.53;4879710;29;20031;-76
2023/04/20 06:35:55;;;;;;;7.65;4.43;;;;;;;7.60;72.37;101806.94;4880517;29;20025;-77
2023/04/20 06:38:21;;;;;;;6.93;3.63;;;;;;;7.67;72.26;101794.69;4880134;29;20545;-75
2023/04/20 06:40:47;;;;;;;10.70;5.53;;;;;;;7.69;72.02;101787.41;4879243;29;20092;-74
2023/04/20 06:43:12;;;;;;;9.73;4.10;;;;;;;7.79;70.54;101821.03;4878767;29;20028;-74
2023/04/20 06:45:39;;;;;;;8.15;4.22;;;;;;;7.75;71.25;101801.91;4879557;29;20123;-74
2023/04/20 06:48:05;;;;;;;10.18;5.10;;;;;;;7.63;70.27;101806.63;4878897;29;20044;-74
2023/04/20 06:50:30;;;;;;;8.95;3.92;;;;;;;7.56;70.83;101815.34;4879305;29;20404;-74
2023/04/20 06:52:55;;;;;;;10.02;4.07;;;;;;;7.55;71.41;101797.78;4877967;29;20115;-74
2023/04/20 06:55:21;;;;;;;9.65;4.43;;;;;;;7.52;71.12;101787.44;4878739;29;20100;-74
2023/04/20 06:57:46;;;;;;;7.47;3.95;;;;;;;7.46;71.41;101779.09;4879383;29;20048;-74
2023/04/20 07:00:12;;;;;;;7.97;4.65;;;;;;;7.49;71.28;101799.19;4879145;29;20739;-77
2023/04/20 07:02:45;;;;;;;9.85;4.30;;;;;;;7.38;71.89;101805.56;4863355;29;20681;-75
2023/04/20 07:05:11;;;;;;;6.95;3.70;;;;;;;7.34;72.37;101798.91;4878934;29;20021;-75
2023/04/20 07:07:37;;;;;;;6.85;4.05;;;;;;;7.29;72.35;101790.56;4879044;29;20031;-75
2023/04/20 07:10:02;;;;;;;11.55;3.95;;;;;;;7.33;73.59;101781.31;4878829;29;20061;-74
2023/04/20 07:12:28;;;;;;;8.18;3.97;;;;;;;7.36;73.20;101804.91;4878749;29;20041;-75
2023/04/20 07:14:54;;;;;;;6.70;3.72;;;;;;;7.31;72.36;101793.91;4878656;29;20120;-75
2023/04/20 07:17:19;;;;;;;6.72;3.38;;;;;;;7.34;73.45;101803.41;4883109;29;20060;-83
2023/04/20 07:19:45;;;;;;;8.40;4.50;;;;;;;7.35;72.76;101799.75;4857122;29;20060;-83
2023/04/20 07:22:10;;;;;;;10.40;4.15;;;;;;;7.36;73.65;101799.59;4864683;29;20044;-77
2023/04/20 07:24:35;;;;;;;10.57;3.47;;;;;;;7.36;74.34;101807.56;4879753;29;20032;-77
2023/04/20 07:27:01;;;;;;;10.52;5.75;;;;;;;7.29;74.36;101798.53;4863805;29;20103;-74
2023/04/20 07:29:27;;;;;;;7.25;4.63;;;;;;;7.38;74.18;101789.66;4880368;29;20132;-81
2023/04/20 07:31:52;;;;;;;8.30;3.63;;;;;;;7.53;73.39;101789.94;4863677;29;20127;-77
2023/04/20 07:34:17;;;;;;;6.13;3.85;;;;;;;7.63;72.96;101784.56;4880418;29;20048;-75
2023/04/20 07:36:43;;;;;;;9.80;4.72;;;;;;;7.96;73.72;101776.81;4884957;29;20032;-78
2023/04/20 07:39:08;;;;;;;9.52;4.80;;;;;;;8.43;71.84;101774.59;4882919;29;20113;-75
2023/04/20 07:41:35;;;;;;;7.32;4.53;;;;;;;8.91;69.73;101785.59;4880692;29;20056;-76
2023/04/20 07:44:00;;;;;;;8.07;4.45;;;;;;;9.09;68.85;101796.06;4882593;29;20053;-76
2023/04/20 07:46:27;;;;;;;7.10;3.90;;;;;;;9.22;68.12;101785.78;4881519;29;20337;-78
2023/04/20 07:48:52;;;;;;;11.30;3.88;;;;;;;9.12;67.58;101801.91;4883803;29;20036;-78
2023/04/20 07:51:18;;;;;;;6.10;3.33;;;;;;;8.71;68.14;101777.03;4865141;29;20079;-81
2023/04/20 07:53:43;;;;;;;8.93;4.20;;;;;;;8.57;70.35;101789.13;4878412;29;20540;-74
2023/04/20 07:56:09;;;;;;;7.43;3.45;;;;;;;8.66;70.87;101787.31;4881861;29;20429;-77
2023/04/20 07:58:37;;;;;;;6.70;3.70;;;;;;;8.47;70.48;101775.13;4863402;29;20508;-84
2023/04/20 08:01:03;;;;;;;7.35;4.22;;;;;;;8.40;71.65;101785.56;4880143;29;20032;-77
2023/04/20 08:03:28;;;;;;;8.65;3.40;;;;;;;8.31;71.60;101787.31;4886674;29;20032;-80
2023/04/20 08:05:53;;;;;;;7.40;4.05;;;;;;;8.21;72.20;101781.28;4853418;29;20025;-82
2023/04/20 08:08:19;;;;;;;7.05;4.15;;;;;;;8.13;71.69;101782.06;4880980;29;20033;-82
2023/04/20 08:10:44;;;;;;;8.73;3.55;;;;;;;8.12;73.23;101784.88;4843649;29;20116;-76
2023/04/20 08:13:10;;;;;;;9.82;5.53;;;;;;;8.05;73.16;101786.50;4889527;29;20070;-77
2023/04/20 08:15:35;;;;;;;4.53;2.88;;;;;;;8.13;72.71;101783.91;4889637;29;20127;-77
2023/04/20 08:18:00;;;;;;;7.70;2.95;;;;;;;8.25;73.22;101795.94;4888937;29;20080;-77
2023/04/20 08:20:26;;;;;;;6.40;3.45;;;;;;;8.61;71.62;101781.66;4882399;29;20032;-78
2023/04/20 08:22:52;;;;;;;7.43;3.35;;;;;;;8.50;71.97;101774.81;4883092;29;20028;-79
2023/04/20 08:25:17;;;;;;;6.25;3.97;;;;;;;8.51;72.41;101772.00;4881444;29;20403;-79
2023/04/20 08:27:43;;;;;;;7.55;3.50;;;;;;;9.07;70.67;101760.84;4888170;29;20056;-79
2023/04/20 08:30:08;;;;;;;7.22;3.85;;;;;;;9.22;70.02;101756.50;4883196;29;20108;-79
2023/04/20 08:32:34;;;;;;;5.43;3.00;;;;;;;9.30;68.76;101761.00;4885127;29;20180;-79
2023/04/20 08:34:59;;;;;;;5.75;4.10;;;;;;;8.99;70.34;101759.00;4889480;29;20544;-79
2023/04/20 08:37:25;;;;;;;6.40;3.40;;;;;;;8.92;72.04;101763.28;4888392;29;20129;-79
2023/04/20 08:39:51;;;;;;;4.68;3.15;;;;;;;9.20;70.10;101754.03;4889639;29;20028;-79
2023/04/20 08:42:16;;;;;;;6.45;3.50;;;;;;;9.58;68.53;101756.19;4875907;29;20049;-79
2023/04/20 08:44:42;;;;;;;9.20;3.50;;;;;;;9.53;69.02;101759.34;4871108;29;20043;-79
2023/04/20 08:47:10;;;;;;;9.45;3.25;;;;;;;9.31;68.91;101757.34;4887371;29;20071;-78
2023/04/20 08:49:38;;;;;;;6.07;3.53;;;;;;;9.07;69.42;101753.69;4889924;29;20028;-79
2023/04/20 08:52:04;;;;;;;7.45;3.60;;;;;;;8.93;70.15;101751.63;4893269;29;20548;-76
2023/04/20 08:54:30;;;;;;;6.80;3.70;;;;;;;8.87;70.11;101747.81;4896464;29;20032;-77
2023/04/20 08:56:55;;;;;;;11.35;3.70;;;;;;;8.81;71.06;101739.66;4876883;29;20043;-76
2023/04/20 08:59:21;;;;;;;5.90;3.80;;;;;;;8.93;70.70;101741.84;4864093;29;20429;-76
2023/04/20 09:01:46;;;;;;;8.60;3.95;;;;;;;9.07;70.51;101752.84;4879434;29;20036;-76
2023/04/20 09:04:22;;;;;;;5.30;3.20;;;;;;;9.07;70.15;101750.19;4893205;29;20037;-77
2023/04/20 09:06:53;;;;;;;7.60;3.33;;;;;;;9.08;70.36;101755.31;4892703;29;20104;-76
2023/04/20 09:09:20;;;;;;;5.50;3.72;;;;;;;8.96;70.95;101744.19;4890843;29;20029;-76
2023/04/20 09:11:46;;;;;;;5.15;3.30;;;;;;;8.89;70.48;101752.97;4861850;29;20052;-77
2023/04/20 09:14:14;;;;;;;10.63;3.55;;;;;;;8.82;70.64;101731.50;4878624;29;20037;-76
2023/04/20 09:17:00;;;;;;;7.30;3.20;;;;;;;8.73;71.15;101737.81;4891547;29;20115;-77
2023/04/20 09:19:28;;;;;;;5.53;3.28;;;;;;;8.82;70.48;101755.44;4864528;29;20033;-76
2023/04/20 09:21:56;;;;;;;8.90;3.70;;;;;;;8.74;70.09;101744.78;4895839;29;20036;-76
2023/04/20 09:24:35;;;;;;;8.65;3.47;;;;;;;8.66;71.66;101732.31;4895816;29;20524;-76
2023/04/20 09:27:13;;;;;;;5.32;3.90;;;;;;;8.76;70.98;101751.63;4889821;29;20104;-76
2023/04/20 09:29:38;;;;;;;9.15;3.92;;;;;;;8.79;70.99;101747.78;4876612;29;20043;-76
2023/04/20 09:32:03;;;;;;;5.00;3.10;;;;;;;8.80;70.98;101738.81;4876631;29;20033;-76
2023/04/20 09:34:29;;;;;;;6.55;3.60;;;;;;;8.73;71.76;101737.81;4886667;29;20481;-77
2023/04/20 09:36:54;;;;;;;4.90;3.42;;;;;;;8.65;71.05;101749.25;4895549;29;20139;-76
2023/04/20 09:39:22;;;;;;;5.95;3.55;;;;;;;8.59;71.63;101743.75;4867531;29;20064;-76
2023/04/20 09:41:49;;;;;;;5.78;3.30;;;;;;;8.59;71.83;101744.56;4895508;29;20024;-76
2023/04/20 09:44:16;;;;;;;7.82;4.00;;;;;;;8.64;72.34;101750.25;4884478;29;20096;-76
2023/04/20 09:46:42;;;;;;;8.32;4.60;;;;;;;8.65;72.31;101735.16;4883439;29;20072;-78
2023/04/20 09:49:10;;;;;;;7.78;4.15;;;;;;;8.78;72.15;101725.69;4885800;29;20123;-79
2023/04/20 09:51:37;;;;;;;6.32;3.53;;;;;;;8.88;72.83;101727.34;4876567;29;20033;-78
2023/04/20 09:54:04;;;;;;;6.90;4.22;;;;;;;8.85;71.97;101727.69;4884663;29;20115;-79
2023/04/20 09:56:31;;;;;;;9.60;4.47;;;;;;;8.82;71.29;101720.88;4883666;29;20112;-79
2023/04/20 09:58:58;;;;;;;5.90;3.40;;;;;;;8.82;71.67;101722.69;4887181;29;20043;-79
2023/04/20 10:01:24;;;;;;;8.18;4.13;;;;;;;8.77;72.23;101717.88;4887764;29;20036;-79
2023/04/20 10:03:52;;;;;;;9.23;4.28;;;;;;;8.80;73.41;101714.88;4887179;29;20043;-78
2023/04/20 10:06:28;;;;;;;8.63;4.38;;;;;;;8.80;73.76;101720.19;4886479;29;20020;-78
2023/04/20 10:08:54;;;;;;;6.97;3.97;;;;;;;8.74;75.61;101715.53;4888358;29;20111;-78
2023/04/20 10:11:43;;;;;;;8.15;3.70;;;;;;;8.69;72.90;101717.84;4882691;29;20081;-78
2023/04/20 10:14:17;;;;;;;6.78;4.38;;;;;;;8.68;73.18;101719.69;4869254;29;20029;-79
2023/04/20 10:16:43;;;;;;;8.07;4.88;;;;;;;8.72;73.02;101722.84;4886611;29;20049;-79
2023/04/20 10:19:09;;;;;;;8.60;4.45;;;;;;;8.84;73.27;101715.41;4870272;29;20025;-79
2023/04/20 10:21:47;;;;;;;8.15;4.15;;;;;;;8.98;71.71;101706.75;4879210;29;20552;-79
2023/04/20 10:24:13;;;;;;;7.28;3.70;;;;;;;9.03;70.56;101712.41;4888929;29;20044;-79
2023/04/20 10:26:46;;;;;;;7.20;4.38;;;;;;;8.96;70.87;101706.09;4883599;29;20052;-79
2023/04/20 10:29:28;;;;;;;8.18;4.03;;;;;;;9.03;72.30;101711.59;4867247;29;20036;-79
2023/04/20 10:31:54;;;;;;;;;;;;;;;9.11;71.54;101696.44;4887023;29;20044;-79
2023/04/20 10:34:33;;;;;;;8.70;4.45;;;;;;;9.12;71.06;101699.97;4885217;29;19911;-78
2023/04/20 10:37:10;;;;;;;7.60;4.20;;;;;;;8.83;71.49;101695.09;4881890;29;20109;-78
2023/04/20 10:39:42;;;;;;;7.03;3.85;;;;;;;8.69;72.72;101708.03;4882035;29;20127;-78
2023/04/20 10:42:08;;;;;;;8.32;4.57;;;;;;;8.42;73.85;101687.88;4885846;29;20397;-78
2023/04/20 10:44:34;;;;;;;10.20;4.40;;;;;;;8.41;74.48;101678.25;4873428;29;20036;-79
2023/04/20 10:46:59;;;;;;;11.52;4.63;;;;;;;8.52;74.87;101687.75;4888889;29;20032;-80
2023/04/20 10:49:27;;;;;;;9.98;4.88;;;;;;;8.87;75.39;101688.47;4883104;29;20109;-78
2023/04/20 10:51:53;;;;;;;5.82;3.85;;;;;;;9.07;73.13;101684.50;4887287;29;20127;-79
2023/04/20 10:54:19;;;;;;;6.38;4.32;;;;;;;9.08;72.44;101678.16;4885402;29;21109;-78
2023/04/20 10:56:45;;;;;;;7.93;4.10;;;;;;;9.06;72.90;101681.97;4888504;29;20033;-78
2023/04/20 10:59:12;;;;;;;9.82;5.22;;;;;;;8.98;72.98;101678.31;4869366;29;20129;-79
2023/04/20 11:01:38;;;;;;;7.68;4.03;;;;;;;8.99;72.86;101684.50;4890209;29;20055;-78
2023/04/20 11:04:04;;;;;;;7.47;4.20;;;;;;;9.12;72.25;101668.03;4892076;29;20029;-78
2023/04/20 11:06:33;;;;;;;10.85;4.43;;;;;;;9.15;71.85;101665.84;4869373;29;20039;-78
2023/04/20 11:08:58;;;;;;;14.65;5.05;;;;;;;9.14;72.83;101664.22;4885161;29;20552;-79
2023/04/20 11:11:27;;;;;;;9.40;4.25;;;;;;;9.12;70.37;101660.06;4874511;29;20041;-78
2023/04/20 11:14:06;;;;;;;8.18;4.25;;;;;;;9.05;71.13;101661.72;4892752;29;20500;-78
2023/04/20 11:16:31;;;;;;;9.18;5.18;;;;;;;8.99;73.22;101668.53;4887082;29;20048;-78
2023/04/20 11:18:58;;;;;;;6.47;4.15;;;;;;;8.99;72.20;101666.69;4889183;29;20473;-76
2023/04/20 11:21:37;;;;;;;10.02;5.20;;;;;;;8.91;71.97;101656.06;4887821;29;20028;-75
2023/04/20 11:24:05;;;;;;;7.88;4.30;;;;;;;8.88;72.01;101652.88;4878712;29;20119;-77
2023/04/20 11:26:37;;;;;;;8.52;4.43;;;;;;;8.91;70.13;101655.22;4868945;29;20149;-77